createdAt,value
2023-11-14T00:00:51.961Z,93998.28
2023-11-14T00:03:19.126Z,94002.34
2023-11-14T00:05:47.746Z,93995.22
2023-11-14T00:08:15.392Z,93934.78
2023-11-14T00:10:42.460Z,93908.78
2023-11-14T00:13:09.528Z,93978.34
2023-11-14T00:15:36.714Z,93980.53
2023-11-14T00:18:04.059Z,93976.66
2023-11-14T00:20:31.134Z,93956.81
2023-11-14T00:22:58.568Z,93960.13
2023-11-14T00:25:25.706Z,93986.44
2023-11-14T00:27:53.736Z,93985.84
2023-11-14T00:30:20.978Z,93996.81
2023-11-14T00:32:48.422Z,93990.50
2023-11-14T00:35:15.694Z,93990.47
2023-11-14T00:37:42.866Z,94001.00
2023-11-14T00:40:10.895Z,93990.81
2023-11-14T00:42:37.868Z,93989.13
2023-11-14T00:45:05.269Z,93981.88
2023-11-14T00:47:33.124Z,93990.03
2023-11-14T00:50:00.343Z,93998.16
2023-11-14T00:52:27.588Z,94006.69
2023-11-14T00:54:54.579Z,94009.31
2023-11-14T00:57:21.773Z,94019.75
2023-11-14T00:59:49.226Z,94010.28
2023-11-14T01:02:16.690Z,94014.84
2023-11-14T01:04:43.830Z,94000.06
2023-11-14T01:07:11.704Z,93995.44
2023-11-14T01:09:38.759Z,93983.69
2023-11-14T01:12:06.350Z,93975.50
2023-11-14T01:14:34.114Z,93994.69
2023-11-14T01:17:02.300Z,94024.53
2023-11-14T01:19:29.544Z,94002.84
2023-11-14T01:21:56.610Z,94017.03
2023-11-14T01:24:23.662Z,94020.06
2023-11-14T01:26:50.776Z,94018.00
2023-11-14T01:29:17.817Z,94030.16
2023-11-14T01:31:44.830Z,94028.53
2023-11-14T01:34:11.906Z,94027.28
2023-11-14T01:36:39.582Z,94019.75
2023-11-14T01:39:08.318Z,94024.13
2023-11-14T01:41:37.708Z,94015.22
2023-11-14T01:44:05.743Z,94023.06
2023-11-14T01:46:33.218Z,94022.69
2023-11-14T01:49:00.759Z,94016.97
2023-11-14T01:51:28.367Z,94012.91
2023-11-14T01:53:56.841Z,94009.47
2023-11-14T01:56:25.096Z,94015.34
2023-11-14T01:58:52.891Z,94019.38
2023-11-14T02:01:22.173Z,94015.72
2023-11-14T02:03:50.173Z,94016.91
2023-11-14T02:06:17.283Z,94031.94
2023-11-14T02:08:45.163Z,94035.38
2023-11-14T02:11:12.167Z,94034.41
2023-11-14T02:13:45.106Z,94028.88
2023-11-14T02:16:13.556Z,94031.50
2023-11-14T02:18:40.639Z,94035.78
2023-11-14T02:21:08.394Z,94031.50
2023-11-14T02:23:38.605Z,94027.00
2023-11-14T02:26:06.330Z,94036.53
2023-11-14T02:28:33.414Z,94039.06
2023-11-14T02:31:02.096Z,94060.09
2023-11-14T02:33:29.225Z,94062.91
2023-11-14T02:35:56.423Z,94044.25
2023-11-14T02:38:23.506Z,94030.47
2023-11-14T02:40:52.458Z,94035.16
2023-11-14T02:43:20.384Z,94028.81
2023-11-14T02:45:47.546Z,94038.53
2023-11-14T02:48:15.714Z,94022.31
2023-11-14T02:50:52.178Z,94027.22
2023-11-14T02:53:21.488Z,94053.88
2023-11-14T02:55:53.131Z,94055.53
2023-11-14T02:58:20.852Z,94051.06
2023-11-14T03:00:53.207Z,94047.81
2023-11-14T03:03:21.331Z,94047.34
2023-11-14T03:05:48.506Z,94036.19
2023-11-14T03:08:15.573Z,94034.75
2023-11-14T03:10:44.405Z,94017.28
2023-11-14T03:13:12.147Z,94013.28
2023-11-14T03:15:39.282Z,94005.19
2023-11-14T03:18:07.181Z,94012.28
2023-11-14T03:20:35.437Z,94012.47
2023-11-14T03:23:04.867Z,94020.97
2023-11-14T03:25:32.667Z,94045.38
2023-11-14T03:28:00.477Z,94057.00
2023-11-14T03:30:28.393Z,94079.91
2023-11-14T03:32:56.404Z,94073.50
2023-11-14T03:35:24.526Z,94061.97
2023-11-14T03:37:51.834Z,94053.28
2023-11-14T03:40:18.942Z,94056.25
2023-11-14T03:42:46.103Z,94061.69
2023-11-14T03:45:13.264Z,94052.00
2023-11-14T03:47:40.293Z,94060.16
2023-11-14T03:50:09.773Z,94074.22
2023-11-14T03:52:38.807Z,94081.41
2023-11-14T03:55:06.918Z,94065.34
2023-11-14T03:57:34.158Z,94077.84
2023-11-14T04:00:01.118Z,94084.38
2023-11-14T04:02:28.592Z,94097.53
2023-11-14T04:04:56.139Z,94111.47
2023-11-14T04:07:23.259Z,94098.72
2023-11-14T04:09:50.330Z,94093.97
2023-11-14T04:12:17.562Z,94106.94
2023-11-14T04:14:44.753Z,94124.53
2023-11-14T04:17:12.078Z,94127.50
2023-11-14T04:19:39.204Z,94119.84
2023-11-14T04:22:06.300Z,94123.44
2023-11-14T04:24:33.332Z,94149.78
2023-11-14T04:27:01.498Z,94147.00
2023-11-14T04:29:28.619Z,94115.63
2023-11-14T04:31:55.946Z,94126.13
2023-11-14T04:34:23.629Z,94128.13
2023-11-14T04:36:50.742Z,94148.34
2023-11-14T04:39:17.999Z,94153.59
2023-11-14T04:41:45.205Z,94154.25
2023-11-14T04:44:12.752Z,94153.59
2023-11-14T04:46:45.621Z,94154.31
2023-11-14T04:49:13.122Z,94161.56
2023-11-14T04:51:40.233Z,94142.88
2023-11-14T04:54:07.332Z,94150.75
2023-11-14T04:56:35.979Z,94140.97
2023-11-14T04:59:03.511Z,94142.66
2023-11-14T05:01:30.859Z,94153.63
2023-11-14T05:03:57.956Z,94164.03
2023-11-14T05:06:25.212Z,94157.94
2023-11-14T05:08:52.472Z,94147.34
2023-11-14T05:11:19.544Z,94155.84
2023-11-14T05:13:46.530Z,94141.81
2023-11-14T05:16:22.045Z,94170.34
2023-11-14T05:18:52.142Z,94168.25
2023-11-14T05:21:19.217Z,94150.97
2023-11-14T05:23:46.399Z,94170.81
2023-11-14T05:26:13.487Z,94166.72
2023-11-14T05:28:40.581Z,94164.41
2023-11-14T05:31:08.990Z,94163.47
2023-11-14T05:33:36.240Z,94162.50
2023-11-14T05:36:03.414Z,94169.63
2023-11-14T05:38:31.390Z,94169.28
2023-11-14T05:40:58.499Z,94162.28
2023-11-14T05:43:26.092Z,94174.41
2023-11-14T05:45:55.189Z,94178.38
2023-11-14T05:48:22.226Z,94195.78
2023-11-14T05:50:49.366Z,94178.59
2023-11-14T05:53:17.260Z,94182.88
2023-11-14T05:55:44.606Z,94175.19
2023-11-14T05:58:12.651Z,94188.81
2023-11-14T06:00:39.617Z,94187.16
2023-11-14T06:03:06.864Z,94168.31
2023-11-14T06:05:34.042Z,94181.78
2023-11-14T06:08:01.985Z,94174.41
2023-11-14T06:10:29.132Z,94182.28
2023-11-14T06:12:59.480Z,94193.13
2023-11-14T06:15:28.161Z,94197.09
2023-11-14T06:17:55.451Z,94182.34
2023-11-14T06:20:25.127Z,94193.66
2023-11-14T06:22:52.441Z,94201.38
2023-11-14T06:25:19.912Z,94203.81
2023-11-14T06:27:46.950Z,94214.19
2023-11-14T06:30:14.427Z,94211.09
2023-11-14T06:32:41.539Z,94222.06
2023-11-14T06:35:08.839Z,94237.50
2023-11-14T06:37:38.622Z,94229.13
2023-11-14T06:40:07.058Z,94222.91
2023-11-14T06:42:35.508Z,94231.63
2023-11-14T06:45:02.488Z,94226.41
2023-11-14T06:47:30.541Z,94251.28
2023-11-14T06:49:57.698Z,94253.41
2023-11-14T06:52:24.764Z,94262.75
2023-11-14T06:54:51.890Z,94265.72
2023-11-14T06:57:18.849Z,94266.19
2023-11-14T06:59:48.352Z,94264.22
2023-11-14T07:02:15.829Z,94280.94
2023-11-14T07:04:43.138Z,94273.91
2023-11-14T07:07:10.299Z,94285.53
2023-11-14T07:09:37.929Z,94292.09
2023-11-14T07:12:05.239Z,94306.34
2023-11-14T07:14:32.470Z,94304.72
2023-11-14T07:16:59.687Z,94293.25
2023-11-14T07:19:26.750Z,94301.13
2023-11-14T07:21:53.739Z,94311.91
2023-11-14T07:24:20.713Z,94319.13
2023-11-14T07:26:47.777Z,94324.72
2023-11-14T07:29:14.930Z,94340.59
2023-11-14T07:31:43.844Z,94342.56
2023-11-14T07:34:11.109Z,94331.59
2023-11-14T07:36:38.510Z,94321.91
2023-11-14T07:39:06.805Z,94336.50
2023-11-14T07:41:34.615Z,94318.81
2023-11-14T07:44:02.215Z,94332.22
2023-11-14T07:46:29.362Z,94331.91
2023-11-14T07:48:56.723Z,94324.22
2023-11-14T07:51:24.999Z,94334.19
2023-11-14T07:53:55.531Z,94328.31
2023-11-14T07:56:23.423Z,94346.50
2023-11-14T07:58:50.971Z,94345.00
2023-11-14T08:01:18.179Z,94346.97
2023-11-14T08:03:46.230Z,94372.38
2023-11-14T08:06:13.297Z,94369.25
2023-11-14T08:08:40.297Z,94379.09
2023-11-14T08:11:07.448Z,94377.63
2023-11-14T08:13:34.495Z,94361.06
2023-11-14T08:16:01.549Z,94340.91
2023-11-14T08:18:28.494Z,94351.91
2023-11-14T08:20:55.602Z,94364.66
2023-11-14T08:23:22.728Z,94367.94
2023-11-14T08:25:49.856Z,94389.91
2023-11-14T08:28:16.910Z,94401.00
2023-11-14T08:30:43.931Z,94383.78
2023-11-14T08:33:11.607Z,94393.31
2023-11-14T08:35:38.743Z,94408.88
2023-11-14T08:38:13.984Z,94402.63
2023-11-14T08:40:46.630Z,94376.69
2023-11-14T08:43:13.681Z,94378.00
2023-11-14T08:45:40.917Z,94362.28
2023-11-14T08:48:09.579Z,94395.75
2023-11-14T08:50:37.721Z,94420.31
2023-11-14T08:53:05.297Z,94433.81
2023-11-14T08:55:32.915Z,94384.16
2023-11-14T08:58:01.305Z,94327.00
2023-11-14T09:00:28.796Z,94354.84
2023-11-14T09:02:55.831Z,94382.22
2023-11-14T09:05:23.061Z,94383.38
2023-11-14T09:07:50.207Z,94378.78
2023-11-14T09:10:17.307Z,94381.03
2023-11-14T09:12:44.498Z,94384.38
2023-11-14T09:15:14.905Z,94375.50
2023-11-14T09:17:46.550Z,94391.56
2023-11-14T09:20:18.580Z,94395.81
2023-11-14T09:22:46.129Z,94386.00
2023-11-14T09:25:13.529Z,94375.50
2023-11-14T09:27:41.094Z,94363.03
2023-11-14T09:30:10.239Z,94342.69
2023-11-14T09:32:37.502Z,94334.69
2023-11-14T09:35:06.068Z,94335.50
2023-11-14T09:37:33.127Z,94331.09
2023-11-14T09:40:00.146Z,94331.91
2023-11-14T09:42:27.955Z,94340.41
2023-11-14T09:44:55.646Z,94354.53
2023-11-14T09:47:23.428Z,94363.88
2023-11-14T09:49:50.735Z,94357.81
2023-11-14T09:52:18.085Z,94362.06
2023-11-14T09:54:45.781Z,94375.81
2023-11-14T09:57:14.498Z,94356.31
2023-11-14T09:59:44.474Z,94356.47
2023-11-14T10:02:12.725Z,94326.63
2023-11-14T10:04:41.173Z,94333.34
2023-11-14T10:07:09.642Z,94328.75
2023-11-14T10:09:39.224Z,94315.78
2023-11-14T10:12:20.334Z,94339.38
2023-11-14T10:14:51.289Z,94325.25
2023-11-14T10:17:19.595Z,94334.28
2023-11-14T10:20:07.341Z,94361.38
2023-11-14T10:22:36.475Z,94350.88
2023-11-14T10:25:04.211Z,94342.34
2023-11-14T10:27:38.290Z,94321.84
2023-11-14T10:30:08.282Z,94339.25
2023-11-14T10:32:35.435Z,94332.06
2023-11-14T10:35:19.680Z,94331.19
2023-11-14T10:37:46.854Z,94327.59
2023-11-14T10:40:14.012Z,94317.78
2023-11-14T10:42:41.134Z,94317.28
2023-11-14T10:45:09.286Z,94305.44
2023-11-14T10:47:44.718Z,94305.44
2023-11-14T10:50:29.973Z,94332.78
2023-11-14T10:52:57.959Z,94280.00
2023-11-14T10:55:26.407Z,94270.97
2023-11-14T10:57:58.357Z,94272.13
2023-11-14T11:00:26.356Z,94270.63
2023-11-14T11:02:54.871Z,94269.16
2023-11-14T11:05:30.957Z,94271.09
2023-11-14T11:08:06.747Z,94270.13
2023-11-14T11:10:38.595Z,94278.97
2023-11-14T11:13:16.822Z,94275.00
2023-11-14T11:15:51.772Z,94280.31
2023-11-14T11:18:36.351Z,94279.28
2023-11-14T11:21:14.175Z,94276.63
2023-11-14T11:24:20.319Z,94262.22
2023-11-14T11:27:23.135Z,94276.34
2023-11-14T11:29:56.420Z,94260.88
2023-11-14T11:32:35.887Z,94250.84
2023-11-14T11:35:19.684Z,94250.53
2023-11-14T11:37:54.890Z,94236.41
2023-11-14T11:40:32.161Z,94229.97
2023-11-14T11:43:17.114Z,94219.84
2023-11-14T11:45:51.172Z,94197.50
2023-11-14T11:48:37.260Z,94174.53
2023-11-14T11:51:21.461Z,94143.78
2023-11-14T11:53:50.691Z,94160.09
2023-11-14T11:56:35.960Z,94165.34
2023-11-14T11:59:04.802Z,94160.78
2023-11-14T12:01:32.852Z,94152.16
2023-11-14T12:04:01.301Z,94147.22
2023-11-14T12:06:28.849Z,94128.44
2023-11-14T12:08:56.717Z,94117.13
2023-11-14T12:11:23.957Z,94122.91
2023-11-14T12:13:54.942Z,94132.06
2023-11-14T12:16:25.899Z,94147.63
2023-11-14T12:18:52.931Z,94144.22
2023-11-14T12:21:20.490Z,94130.06
2023-11-14T12:23:48.100Z,94131.66
2023-11-14T12:26:16.014Z,94107.44
2023-11-14T12:28:45.052Z,94120.50
2023-11-14T12:31:15.211Z,94099.97
2023-11-14T12:33:51.911Z,94117.22
2023-11-14T12:36:26.335Z,94103.72
2023-11-14T12:38:55.437Z,94118.72
2023-11-14T12:41:30.772Z,94099.63
2023-11-14T12:44:08.011Z,94095.72
2023-11-14T12:46:38.693Z,94107.13
2023-11-14T12:49:12.461Z,94125.72
2023-11-14T12:51:51.663Z,94131.28
2023-11-14T12:54:21.842Z,94137.66
2023-11-14T12:56:50.037Z,94131.34
2023-11-14T12:59:18.260Z,94147.56
2023-11-14T13:01:46.639Z,94155.13
2023-11-14T13:04:14.659Z,94132.03
2023-11-14T13:06:44.600Z,94120.25
2023-11-14T13:09:12.700Z,94109.06
2023-11-14T13:11:42.799Z,94107.09
2023-11-14T13:14:11.006Z,94112.06
2023-11-14T13:16:38.167Z,94106.81
2023-11-14T13:19:05.395Z,94106.72
2023-11-14T13:21:32.853Z,94091.22
2023-11-14T13:23:59.833Z,94092.69
2023-11-14T13:26:26.817Z,94104.13
2023-11-14T13:28:53.860Z,94094.34
2023-11-14T13:31:20.863Z,94084.91
2023-11-14T13:33:48.122Z,94114.56
2023-11-14T13:36:20.008Z,94090.84
2023-11-14T13:38:47.195Z,94102.50
2023-11-14T13:41:16.848Z,94109.91
2023-11-14T13:43:45.187Z,94108.09
2023-11-14T13:46:23.744Z,94111.00
2023-11-14T13:48:56.707Z,94092.50
2023-11-14T13:51:24.588Z,94086.81
2023-11-14T13:53:52.450Z,94083.50
2023-11-14T13:56:20.661Z,94071.03
2023-11-14T13:58:48.157Z,94065.47
2023-11-14T14:01:18.267Z,94060.59
2023-11-14T14:03:46.140Z,94070.28
2023-11-14T14:06:14.840Z,94060.91
2023-11-14T14:08:42.359Z,94056.16
2023-11-14T14:11:10.426Z,94055.84
2023-11-14T14:13:37.763Z,94065.50
2023-11-14T14:16:05.898Z,94068.00
2023-11-14T14:18:33.451Z,94085.84
2023-11-14T14:21:05.326Z,94086.16
2023-11-14T14:23:33.457Z,94084.50
2023-11-14T14:26:02.199Z,94086.97
2023-11-14T14:28:36.008Z,94071.41
2023-11-14T14:31:08.117Z,94063.25
2023-11-14T14:33:35.980Z,94061.59
2023-11-14T14:36:03.077Z,94039.47
2023-11-14T14:38:30.134Z,94048.81
2023-11-14T14:40:57.157Z,94061.78
2023-11-14T14:43:30.630Z,94049.50
2023-11-14T14:45:58.433Z,94025.63
2023-11-14T14:48:25.856Z,94026.94
2023-11-14T14:50:53.824Z,94031.56
2023-11-14T14:53:21.491Z,94042.69
2023-11-14T14:55:49.177Z,94050.88
2023-11-14T14:58:19.104Z,94065.22
2023-11-14T15:00:46.260Z,94075.03
2023-11-14T15:03:21.316Z,94072.13
2023-11-14T15:05:52.663Z,94079.47
2023-11-14T15:08:21.243Z,94062.28
2023-11-14T15:10:49.895Z,94073.75
2023-11-14T15:13:17.297Z,94072.28
2023-11-14T15:15:45.349Z,94077.38
2023-11-14T15:18:12.861Z,94055.59
2023-11-14T15:20:42.400Z,94018.91
2023-11-14T15:23:09.450Z,93969.91
2023-11-14T15:25:36.531Z,93966.28
2023-11-14T15:28:04.233Z,93997.47
2023-11-14T15:30:31.255Z,94029.75
2023-11-14T15:32:59.392Z,94014.00
2023-11-14T15:35:27.771Z,93971.31
2023-11-14T15:37:56.154Z,93978.53
2023-11-14T15:40:23.584Z,93961.47
2023-11-14T15:42:56.351Z,93955.25
2023-11-14T15:45:26.978Z,93953.59
2023-11-14T15:47:53.954Z,93970.50
2023-11-14T15:50:21.329Z,93964.59
2023-11-14T15:52:48.353Z,93973.25
2023-11-14T15:55:15.341Z,93969.97
2023-11-14T15:57:42.280Z,93983.72
2023-11-14T16:00:12.352Z,93954.25
2023-11-14T16:02:43.407Z,93954.22
2023-11-14T16:05:11.664Z,93935.28
2023-11-14T16:07:39.121Z,93913.66
2023-11-14T16:10:07.861Z,93923.31
2023-11-14T16:12:34.831Z,93933.28
2023-11-14T16:15:04.240Z,93916.03
2023-11-14T16:17:31.479Z,93892.78
2023-11-14T16:19:58.597Z,93898.00
2023-11-14T16:22:25.678Z,93866.59
2023-11-14T16:24:52.688Z,93874.31
2023-11-14T16:27:20.276Z,93861.72
2023-11-14T16:29:49.220Z,93875.69
2023-11-14T16:32:17.566Z,93904.66
2023-11-14T16:34:44.577Z,93930.84
2023-11-14T16:37:12.916Z,93926.41
2023-11-14T16:39:39.882Z,93892.06
2023-11-14T16:42:07.306Z,93889.28
2023-11-14T16:44:34.339Z,93887.59
2023-11-14T16:47:06.856Z,93887.69
2023-11-14T16:49:37.022Z,93899.34
2023-11-14T16:52:04.208Z,93877.75
2023-11-14T16:54:31.195Z,93863.03
2023-11-14T16:56:58.188Z,93863.16
2023-11-14T16:59:25.207Z,93858.41
2023-11-14T17:01:58.285Z,93857.66
2023-11-14T17:04:27.680Z,93860.75
2023-11-14T17:06:54.701Z,93878.47
2023-11-14T17:09:22.530Z,93858.50
2023-11-14T17:11:49.514Z,93866.03
2023-11-14T17:14:16.532Z,93856.28
2023-11-14T17:16:43.526Z,93848.63
2023-11-14T17:19:11.152Z,93866.91
2023-11-14T17:21:38.286Z,93865.03
2023-11-14T17:24:05.844Z,93877.63
2023-11-14T17:26:32.868Z,93870.09
2023-11-14T17:29:00.741Z,93879.19
2023-11-14T17:31:27.731Z,93864.97
2023-11-14T17:33:55.909Z,93880.63
2023-11-14T17:36:23.302Z,93857.88
2023-11-14T17:38:50.250Z,93862.13
2023-11-14T17:41:17.670Z,93874.38
2023-11-14T17:43:44.925Z,93878.66
2023-11-14T17:46:11.955Z,93916.28
2023-11-14T17:48:39.143Z,93913.00
2023-11-14T17:51:07.717Z,93919.88
2023-11-14T17:53:34.900Z,93904.63
2023-11-14T17:56:02.249Z,93905.44
2023-11-14T17:58:29.824Z,93904.22
2023-11-14T18:00:56.900Z,93908.00
2023-11-14T18:03:24.073Z,93898.47
2023-11-14T18:05:51.319Z,93901.78
2023-11-14T18:08:18.489Z,93896.16
2023-11-14T18:10:45.519Z,93882.09
2023-11-14T18:13:16.126Z,93881.91
2023-11-14T18:15:44.298Z,93889.34
2023-11-14T18:18:11.614Z,93870.47
2023-11-14T18:20:39.638Z,93861.66
2023-11-14T18:23:06.883Z,93864.72
2023-11-14T18:25:33.953Z,93842.47
2023-11-14T18:28:01.213Z,93858.13
2023-11-14T18:30:28.263Z,93854.38
2023-11-14T18:32:55.478Z,93846.69
2023-11-14T18:35:26.356Z,93870.63
2023-11-14T18:37:56.048Z,93865.38
2023-11-14T18:40:23.312Z,93859.84
2023-11-14T18:42:50.273Z,93862.13
2023-11-14T18:45:17.420Z,93862.59
2023-11-14T18:47:44.781Z,93855.88
2023-11-14T18:50:12.066Z,93859.69
2023-11-14T18:52:40.812Z,93847.88
2023-11-14T18:55:09.785Z,93851.91
2023-11-14T18:57:37.153Z,93837.81
2023-11-14T19:00:06.048Z,93850.41
2023-11-14T19:02:34.421Z,93848.06
2023-11-14T19:05:01.753Z,93843.28
2023-11-14T19:07:28.980Z,93843.75
2023-11-14T19:09:57.038Z,93827.69
2023-11-14T19:12:26.987Z,93819.91
2023-11-14T19:14:55.231Z,93810.75
2023-11-14T19:17:23.134Z,93812.38
2023-11-14T19:19:50.389Z,93821.53
2023-11-14T19:22:49.676Z,93803.53
2023-11-14T19:25:11.609Z,93829.22
2023-11-14T19:27:39.417Z,93837.88
2023-11-14T19:30:07.547Z,93839.53
2023-11-14T19:32:34.675Z,93868.84
2023-11-14T19:35:05.594Z,93924.63
2023-11-14T19:37:33.226Z,93956.91
2023-11-14T19:40:00.422Z,93944.19
2023-11-14T19:42:27.647Z,93963.13
2023-11-14T19:44:54.605Z,93975.31
2023-11-14T19:47:23.204Z,93972.84
2023-11-14T19:49:51.659Z,93949.56
2023-11-14T19:52:18.852Z,93976.06
2023-11-14T19:54:45.833Z,93965.16
2023-11-14T19:57:12.831Z,93946.75
2023-11-14T19:59:40.013Z,93941.94
2023-11-14T20:02:07.381Z,93925.88
2023-11-14T20:04:34.447Z,93925.19
2023-11-14T20:07:01.934Z,93935.34
2023-11-14T20:09:30.345Z,93926.84
2023-11-14T20:11:58.361Z,93954.56
2023-11-14T20:14:25.718Z,93955.03
2023-11-14T20:16:52.740Z,93966.16
2023-11-14T20:19:19.885Z,93959.09
2023-11-14T20:21:47.166Z,93954.81
2023-11-14T20:24:14.415Z,93946.09
2023-11-14T20:26:44.491Z,93957.06
2023-11-14T20:29:11.624Z,93959.34
2023-11-14T20:31:38.685Z,93941.44
2023-11-14T20:34:05.734Z,93962.72
2023-11-14T20:36:33.013Z,93971.47
2023-11-14T20:39:00.431Z,93962.13
2023-11-14T20:41:28.619Z,93974.25
2023-11-14T20:43:56.798Z,93973.22
2023-11-14T20:46:25.176Z,93991.25
2023-11-14T20:48:53.307Z,93992.56
2023-11-14T20:51:25.459Z,94003.88
2023-11-14T20:53:59.458Z,94004.22
2023-11-14T20:56:27.273Z,94002.22
2023-11-14T20:58:54.966Z,94015.53
2023-11-14T21:01:23.325Z,94010.28
2023-11-14T21:03:50.850Z,94004.03
2023-11-14T21:06:17.953Z,94006.66
2023-11-14T21:08:45.256Z,94003.41
2023-11-14T21:11:12.559Z,94016.34
2023-11-14T21:13:40.495Z,94034.22
2023-11-14T21:16:11.210Z,94036.38
2023-11-14T21:18:38.917Z,94035.19
2023-11-14T21:21:08.538Z,94040.44
2023-11-14T21:23:40.130Z,94037.50
2023-11-14T21:26:09.955Z,94038.84
2023-11-14T21:28:39.843Z,94044.56
2023-11-14T21:31:12.056Z,94035.19
2023-11-14T21:33:39.659Z,94053.75
2023-11-14T21:36:10.414Z,94057.53
2023-11-14T21:38:38.234Z,94047.66
2023-11-14T21:41:05.744Z,94044.41
2023-11-14T21:43:33.071Z,94054.63
2023-11-14T21:46:00.259Z,94053.28
2023-11-14T21:48:27.442Z,94058.56
2023-11-14T21:50:55.478Z,94064.78
2023-11-14T21:53:22.719Z,94054.47
2023-11-14T21:55:49.988Z,94043.38
2023-11-14T21:58:17.061Z,94056.63
2023-11-14T22:00:44.121Z,94051.56
2023-11-14T22:03:11.237Z,94058.47
2023-11-14T22:05:38.370Z,94065.56
2023-11-14T22:08:05.889Z,94069.78
2023-11-14T22:10:32.974Z,94068.50
2023-11-14T22:13:00.013Z,94076.38
2023-11-14T22:15:27.129Z,94070.00
2023-11-14T22:17:54.253Z,94078.34
2023-11-14T22:20:21.364Z,94098.31
2023-11-14T22:22:48.394Z,94094.72
2023-11-14T22:25:15.362Z,94103.88
2023-11-14T22:27:43.617Z,94112.06
2023-11-14T22:30:13.090Z,94110.44
2023-11-14T22:32:40.261Z,94107.66
2023-11-14T22:35:08.212Z,94120.59
2023-11-14T22:37:35.918Z,94125.03
2023-11-14T22:40:04.326Z,94117.31
2023-11-14T22:42:31.334Z,94125.34
2023-11-14T22:44:59.193Z,94114.34
2023-11-14T22:47:26.801Z,94130.28
2023-11-14T22:49:57.584Z,94122.22
2023-11-14T22:52:24.659Z,94141.72
2023-11-14T22:54:51.733Z,94127.47
2023-11-14T22:57:20.586Z,94147.09
2023-11-14T22:59:48.910Z,94144.28
2023-11-14T23:02:16.051Z,94147.44
2023-11-14T23:04:43.358Z,94149.84
2023-11-14T23:07:10.707Z,94154.41
2023-11-14T23:09:39.098Z,94167.50
2023-11-14T23:12:07.312Z,94163.06
2023-11-14T23:14:34.662Z,94173.34
2023-11-14T23:17:01.806Z,94174.66
2023-11-14T23:19:29.498Z,94176.13
2023-11-14T23:21:59.832Z,94182.03
2023-11-14T23:24:27.241Z,94182.34
2023-11-14T23:26:54.266Z,94190.91
2023-11-14T23:29:21.331Z,94191.03
2023-11-14T23:31:48.320Z,94200.03
2023-11-14T23:34:16.055Z,94218.41
2023-11-14T23:36:43.480Z,94214.84
2023-11-14T23:39:10.779Z,94218.09
2023-11-14T23:41:39.770Z,94220.69
2023-11-14T23:44:07.150Z,94214.19
2023-11-14T23:46:34.190Z,94218.09
2023-11-14T23:49:01.302Z,94224.16
2023-11-14T23:51:28.811Z,94233.88
2023-11-14T23:53:56.496Z,94240.09
2023-11-14T23:56:24.065Z,94248.63
2023-11-14T23:58:51.028Z,94242.72
